sensor_id;sensor_type;location;lat;lon;timestamp;P1;durP1;ratioP1;P2;durP2;ratioP2
72674;SDS011;60752;53.962;9.614;2023-07-02T00:16:45;5.87;;;1.60;;
72674;SDS011;60752;53.962;9.614;2023-07-02T00:46:47;7.43;;;2.20;;
72674;SDS011;60752;53.962;9.614;2023-07-02T01:16:48;6.63;;;2.30;;
72674;SDS011;60752;53.962;9.614;2023-07-02T01:46:50;11.73;;;2.40;;
72674;SDS011;60752;53.962;9.614;2023-07-02T02:16:52;12.07;;;2.90;;
72674;SDS011;60752;53.962;9.614;2023-07-02T02:46:53;9.30;;;3.10;;
72674;SDS011;60752;53.962;9.614;2023-07-02T03:16:55;8.13;;;2.88;;
72674;SDS011;60752;53.962;9.614;2023-07-02T03:46:56;14.07;;;3.63;;
72674;SDS011;60752;53.962;9.614;2023-07-02T04:16:58;13.30;;;3.50;;
72674;SDS011;60752;53.962;9.614;2023-07-02T04:47:00;13.17;;;3.73;;
72674;SDS011;60752;53.962;9.614;2023-07-02T05:17:02;11.53;;;4.33;;
72674;SDS011;60752;53.962;9.614;2023-07-02T05:47:04;22.90;;;4.80;;
72674;SDS011;60752;53.962;9.614;2023-07-02T06:17:06;21.80;;;5.17;;
72674;SDS011;60752;53.962;9.614;2023-07-02T06:47:08;13.80;;;3.50;;
72674;SDS011;60752;53.962;9.614;2023-07-02T07:17:10;9.10;;;3.30;;
72674;SDS011;60752;53.962;9.614;2023-07-02T07:47:11;12.70;;;4.07;;
72674;SDS011;60752;53.962;9.614;2023-07-02T08:17:13;10.35;;;2.90;;
72674;SDS011;60752;53.962;9.614;2023-07-02T08:47:15;8.33;;;2.20;;
72674;SDS011;60752;53.962;9.614;2023-07-02T09:17:16;8.03;;;2.30;;
72674;SDS011;60752;53.962;9.614;2023-07-02T09:47:18;8.57;;;2.00;;
72674;SDS011;60752;53.962;9.614;2023-07-02T10:17:27;8.10;;;1.90;;
72674;SDS011;60752;53.962;9.614;2023-07-02T10:47:29;9.10;;;2.80;;
72674;SDS011;60752;53.962;9.614;2023-07-02T11:17:31;12.23;;;1.97;;
72674;SDS011;60752;53.962;9.614;2023-07-02T11:47:32;8.23;;;1.70;;
72674;SDS011;60752;53.962;9.614;2023-07-02T12:17:34;7.63;;;1.70;;
72674;SDS011;60752;53.962;9.614;2023-07-02T12:47:36;7.83;;;1.70;;
72674;SDS011;60752;53.962;9.614;2023-07-02T13:17:37;7.35;;;1.60;;
72674;SDS011;60752;53.962;9.614;2023-07-02T13:47:39;7.90;;;2.20;;
72674;SDS011;60752;53.962;9.614;2023-07-02T14:17:41;7.80;;;1.70;;
72674;SDS011;60752;53.962;9.614;2023-07-02T14:47:42;9.10;;;2.10;;
72674;SDS011;60752;53.962;9.614;2023-07-02T15:17:44;12.27;;;1.93;;
72674;SDS011;60752;53.962;9.614;2023-07-02T15:47:46;7.95;;;2.15;;
72674;SDS011;60752;53.962;9.614;2023-07-02T16:17:47;9.50;;;2.10;;
72674;SDS011;60752;53.962;9.614;2023-07-02T16:47:49;9.97;;;2.40;;
72674;SDS011;60752;53.962;9.614;2023-07-02T17:17:51;10.50;;;2.13;;
72674;SDS011;60752;53.962;9.614;2023-07-02T17:47:53;7.57;;;2.53;;
72674;SDS011;60752;53.962;9.614;2023-07-02T18:17:54;10.00;;;2.28;;
72674;SDS011;60752;53.962;9.614;2023-07-02T18:47:56;10.00;;;2.33;;
72674;SDS011;60752;53.962;9.614;2023-07-02T19:17:58;6.70;;;2.43;;
72674;SDS011;60752;53.962;9.614;2023-07-02T19:47:59;11.10;;;2.33;;
72674;SDS011;60752;53.962;9.614;2023-07-02T20:18:01;9.03;;;2.20;;
72674;SDS011;60752;53.962;9.614;2023-07-02T20:48:03;5.13;;;1.85;;
72674;SDS011;60752;53.962;9.614;2023-07-02T21:18:05;9.17;;;2.43;;
72674;SDS011;60752;53.962;9.614;2023-07-02T21:48:06;9.30;;;2.50;;
72674;SDS011;60752;53.962;9.614;2023-07-02T22:18:08;8.53;;;2.80;;
72674;SDS011;60752;53.962;9.614;2023-07-02T22:48:10;10.03;;;2.90;;
72674;SDS011;60752;53.962;9.614;2023-07-02T23:18:12;10.25;;;2.75;;
72674;SDS011;60752;53.962;9.614;2023-07-02T23:48:13;9.67;;;2.87;;
